sensor_id;sensor_type;location;lat;lon;timestamp;P1;durP1;ratioP1;P2;durP2;ratioP2
72785;SDS011;60902;53.876;10.674;2023-07-24T00:00:07;4.28;;;2.00;;
72785;SDS011;60902;53.876;10.674;2023-07-24T00:00:18;4.38;;;2.05;;
72785;SDS011;60902;53.876;10.674;2023-07-24T00:00:32;4.30;;;2.00;;
72785;SDS011;60902;53.876;10.674;2023-07-24T00:00:44;4.10;;;1.80;;
72785;SDS011;60902;53.876;10.674;2023-07-24T00:00:54;3.97;;;1.88;;
72785;SDS011;60902;53.876;10.674;2023-07-24T00:01:06;4.28;;;1.88;;
72785;SDS011;60902;53.876;10.674;2023-07-24T00:01:17;4.43;;;1.90;;
72785;SDS011;60902;53.876;10.674;2023-07-24T00:01:37;4.67;;;1.90;;
72785;SDS011;60902;53.876;10.674;2023-07-24T00:01:47;4.47;;;2.10;;
72785;SDS011;60902;53.876;10.674;2023-07-24T00:01:58;4.45;;;2.20;;
72785;SDS011;60902;53.876;10.674;2023-07-24T00:02:09;4.55;;;2.25;;
72785;SDS011;60902;53.876;10.674;2023-07-24T00:02:20;4.23;;;2.00;;
72785;SDS011;60902;53.876;10.674;2023-07-24T00:02:31;4.60;;;2.08;;
72785;SDS011;60902;53.876;10.674;2023-07-24T00:02:42;4.60;;;1.73;;
72785;SDS011;60902;53.876;10.674;2023-07-24T00:03:01;4.72;;;2.10;;
72785;SDS011;60902;53.876;10.674;2023-07-24T00:03:13;4.70;;;2.20;;
72785;SDS011;60902;53.876;10.674;2023-07-24T00:03:23;4.20;;;2.23;;
72785;SDS011;60902;53.876;10.674;2023-07-24T00:03:34;4.30;;;2.30;;
72785;SDS011;60902;53.876;10.674;2023-07-24T00:03:46;4.30;;;2.15;;
72785;SDS011;60902;53.876;10.674;2023-07-24T00:03:57;4.68;;;2.10;;
72785;SDS011;60902;53.876;10.674;2023-07-24T00:04:09;4.75;;;2.10;;
72785;SDS011;60902;53.876;10.674;2023-07-24T00:04:20;4.80;;;2.23;;
72785;SDS011;60902;53.876;10.674;2023-07-24T00:04:30;4.50;;;2.28;;
72785;SDS011;60902;53.876;10.674;2023-07-24T00:04:43;4.53;;;2.33;;
72785;SDS011;60902;53.876;10.674;2023-07-24T00:04:54;4.40;;;2.10;;
72785;SDS011;60902;53.876;10.674;2023-07-24T00:05:05;4.32;;;2.10;;
72785;SDS011;60902;53.876;10.674;2023-07-24T00:05:20;4.10;;;2.03;;
72785;SDS011;60902;53.876;10.674;2023-07-24T00:05:31;5.05;;;2.33;;
72785;SDS011;60902;53.876;10.674;2023-07-24T00:05:41;5.20;;;2.40;;
72785;SDS011;60902;53.876;10.674;2023-07-24T00:05:52;5.15;;;2.40;;
72785;SDS011;60902;53.876;10.674;2023-07-24T00:06:08;4.30;;;2.17;;
72785;SDS011;60902;53.876;10.674;2023-07-24T00:06:20;4.45;;;2.30;;
72785;SDS011;60902;53.876;10.674;2023-07-24T00:06:31;4.35;;;2.22;;
72785;SDS011;60902;53.876;10.674;2023-07-24T00:06:42;4.30;;;2.08;;
72785;SDS011;60902;53.876;10.674;2023-07-24T00:06:53;4.65;;;1.92;;
72785;SDS011;60902;53.876;10.674;2023-07-24T00:07:04;4.93;;;2.13;;
72785;SDS011;60902;53.876;10.674;2023-07-24T00:07:15;4.60;;;2.10;;
72785;SDS011;60902;53.876;10.674;2023-07-24T00:07:26;4.20;;;1.95;;
72785;SDS011;60902;53.876;10.674;2023-07-24T00:07:37;4.33;;;1.93;;
72785;SDS011;60902;53.876;10.674;2023-07-24T00:07:48;4.57;;;2.17;;
72785;SDS011;60902;53.876;10.674;2023-07-24T00:07:59;4.65;;;2.20;;
72785;SDS011;60902;53.876;10.674;2023-07-24T00:08:11;4.80;;;2.35;;
72785;SDS011;60902;53.876;10.674;2023-07-24T00:08:21;4.57;;;2.20;;
72785;SDS011;60902;53.876;10.674;2023-07-24T00:08:32;4.33;;;2.10;;
72785;SDS011;60902;53.876;10.674;2023-07-24T00:08:43;3.92;;;1.85;;
72785;SDS011;60902;53.876;10.674;2023-07-24T00:08:54;4.00;;;1.90;;
72785;SDS011;60902;53.876;10.674;2023-07-24T00:09:05;4.10;;;1.92;;
72785;SDS011;60902;53.876;10.674;2023-07-24T00:09:17;4.15;;;1.98;;
72785;SDS011;60902;53.876;10.674;2023-07-24T00:09:28;4.28;;;2.10;;
72785;SDS011;60902;53.876;10.674;2023-07-24T00:09:39;4.32;;;2.20;;
72785;SDS011;60902;53.876;10.674;2023-07-24T00:09:51;4.30;;;2.20;;
72785;SDS011;60902;53.876;10.674;2023-07-24T00:10:05;4.70;;;2.10;;
72785;SDS011;60902;53.876;10.674;2023-07-24T00:10:17;4.65;;;2.05;;
72785;SDS011;60902;53.876;10.674;2023-07-24T00:10:27;4.50;;;1.98;;
72785;SDS011;60902;53.876;10.674;2023-07-24T00:10:38;4.50;;;1.80;;
72785;SDS011;60902;53.876;10.674;2023-07-24T00:10:50;4.65;;;1.90;;
72785;SDS011;60902;53.876;10.674;2023-07-24T00:11:01;4.20;;;1.95;;
72785;SDS011;60902;53.876;10.674;2023-07-24T00:11:14;4.30;;;2.00;;
72785;SDS011;60902;53.876;10.674;2023-07-24T00:11:25;4.20;;;1.90;;
72785;SDS011;60902;53.876;10.674;2023-07-24T00:11:36;4.30;;;1.90;;
72785;SDS011;60902;53.876;10.674;2023-07-24T00:11:48;4.18;;;1.90;;
72785;SDS011;60902;53.876;10.674;2023-07-24T00:11:59;4.25;;;2.00;;
72785;SDS011;60902;53.876;10.674;2023-07-24T00:12:10;4.30;;;2.10;;
72785;SDS011;60902;53.876;10.674;2023-07-24T00:12:21;4.20;;;2.10;;
72785;SDS011;60902;53.876;10.674;2023-07-24T00:12:32;4.40;;;2.17;;
72785;SDS011;60902;53.876;10.674;2023-07-24T00:12:43;4.50;;;2.20;;
72785;SDS011;60902;53.876;10.674;2023-07-24T00:12:54;4.43;;;2.20;;
72785;SDS011;60902;53.876;10.674;2023-07-24T00:13:06;4.20;;;1.95;;
72785;SDS011;60902;53.876;10.674;2023-07-24T00:13:17;4.22;;;1.85;;
72785;SDS011;60902;53.876;10.674;2023-07-24T00:13:28;4.97;;;1.95;;
72785;SDS011;60902;53.876;10.674;2023-07-24T00:13:39;5.43;;;2.13;;
72785;SDS011;60902;53.876;10.674;2023-07-24T00:13:49;5.50;;;2.03;;
72785;SDS011;60902;53.876;10.674;2023-07-24T00:14:00;4.80;;;1.90;;
72785;SDS011;60902;53.876;10.674;2023-07-24T00:14:11;4.82;;;1.92;;
72785;SDS011;60902;53.876;10.674;2023-07-24T00:14:22;4.72;;;2.08;;
72785;SDS011;60902;53.876;10.674;2023-07-24T00:14:34;4.65;;;2.00;;
72785;SDS011;60902;53.876;10.674;2023-07-24T00:14:45;4.15;;;1.90;;
72785;SDS011;60902;53.876;10.674;2023-07-24T00:14:57;4.15;;;1.95;;
72785;SDS011;60902;53.876;10.674;2023-07-24T00:15:08;5.10;;;2.10;;
72785;SDS011;60902;53.876;10.674;2023-07-24T00:15:19;5.38;;;2.03;;
72785;SDS011;60902;53.876;10.674;2023-07-24T00:15:30;5.40;;;2.13;;
72785;SDS011;60902;53.876;10.674;2023-07-24T00:15:41;4.55;;;2.10;;
72785;SDS011;60902;53.876;10.674;2023-07-24T00:15:52;4.20;;;2.00;;
72785;SDS011;60902;53.876;10.674;2023-07-24T00:16:05;4.20;;;1.92;;
72785;SDS011;60902;53.876;10.674;2023-07-24T00:16:17;4.00;;;1.77;;
72785;SDS011;60902;53.876;10.674;2023-07-24T00:16:28;4.10;;;1.90;;
72785;SDS011;60902;53.876;10.674;2023-07-24T00:16:40;4.25;;;1.92;;
72785;SDS011;60902;53.876;10.674;2023-07-24T00:16:51;4.85;;;2.05;;
72785;SDS011;60902;53.876;10.674;2023-07-24T00:17:01;5.05;;;2.13;;
72785;SDS011;60902;53.876;10.674;2023-07-24T00:17:12;4.60;;;2.20;;
72785;SDS011;60902;53.876;10.674;2023-07-24T00:17:23;4.20;;;1.95;;
72785;SDS011;60902;53.876;10.674;2023-07-24T00:17:34;4.32;;;1.90;;
72785;SDS011;60902;53.876;10.674;2023-07-24T00:17:45;4.38;;;1.98;;
72785;SDS011;60902;53.876;10.674;2023-07-24T00:17:56;4.60;;;2.38;;
72785;SDS011;60902;53.876;10.674;2023-07-24T00:18:07;4.40;;;2.38;;
72785;SDS011;60902;53.876;10.674;2023-07-24T00:18:19;4.40;;;2.40;;
72785;SDS011;60902;53.876;10.674;2023-07-24T00:18:30;4.20;;;2.17;;
72785;SDS011;60902;53.876;10.674;2023-07-24T00:18:41;4.80;;;2.10;;
72785;SDS011;60902;53.876;10.674;2023-07-24T00:18:52;4.60;;;1.73;;
72785;SDS011;60902;53.876;10.674;2023-07-24T00:19:03;4.75;;;1.90;;
72785;SDS011;60902;53.876;10.674;2023-07-24T00:19:14;4.25;;;1.92;;
72785;SDS011;60902;53.876;10.674;2023-07-24T00:19:25;4.30;;;2.00;;
72785;SDS011;60902;53.876;10.674;2023-07-24T00:19:35;4.05;;;1.98;;
72785;SDS011;60902;53.876;10.674;2023-07-24T00:19:46;4.10;;;2.00;;
72785;SDS011;60902;53.876;10.674;2023-07-24T00:19:59;4.20;;;2.10;;
72785;SDS011;60902;53.876;10.674;2023-07-24T00:20:11;4.32;;;2.20;;
72785;SDS011;60902;53.876;10.674;2023-07-24T00:20:22;4.38;;;2.13;;
72785;SDS011;60902;53.876;10.674;2023-07-24T00:20:34;4.40;;;2.15;;
72785;SDS011;60902;53.876;10.674;2023-07-24T00:20:45;4.28;;;2.00;;
72785;SDS011;60902;53.876;10.674;2023-07-24T00:20:56;4.65;;;1.98;;
72785;SDS011;60902;53.876;10.674;2023-07-24T00:21:07;5.53;;;2.03;;
72785;SDS011;60902;53.876;10.674;2023-07-24T00:21:17;5.70;;;2.03;;
72785;SDS011;60902;53.876;10.674;2023-07-24T00:21:28;5.30;;;2.03;;
72785;SDS011;60902;53.876;10.674;2023-07-24T00:21:40;4.30;;;2.00;;
72785;SDS011;60902;53.876;10.674;2023-07-24T00:21:51;4.10;;;2.08;;
72785;SDS011;60902;53.876;10.674;2023-07-24T00:22:03;4.10;;;2.15;;
72785;SDS011;60902;53.876;10.674;2023-07-24T00:22:14;4.20;;;2.00;;
72785;SDS011;60902;53.876;10.674;2023-07-24T00:22:25;4.30;;;1.88;;
72785;SDS011;60902;53.876;10.674;2023-07-24T00:22:36;4.70;;;1.77;;
72785;SDS011;60902;53.876;10.674;2023-07-24T00:22:47;4.80;;;1.90;;
72785;SDS011;60902;53.876;10.674;2023-07-24T00:22:58;4.60;;;2.08;;
72785;SDS011;60902;53.876;10.674;2023-07-24T00:23:08;4.47;;;2.17;;
72785;SDS011;60902;53.876;10.674;2023-07-24T00:23:19;4.50;;;2.20;;
72785;SDS011;60902;53.876;10.674;2023-07-24T00:23:30;4.45;;;2.08;;
72785;SDS011;60902;53.876;10.674;2023-07-24T00:23:41;4.60;;;1.93;;
72785;SDS011;60902;53.876;10.674;2023-07-24T00:23:52;4.50;;;1.92;;
72785;SDS011;60902;53.876;10.674;2023-07-24T00:24:04;4.00;;;1.80;;
72785;SDS011;60902;53.876;10.674;2023-07-24T00:24:15;4.10;;;1.90;;
72785;SDS011;60902;53.876;10.674;2023-07-24T00:24:26;5.20;;;1.90;;
72785;SDS011;60902;53.876;10.674;2023-07-24T00:24:40;5.40;;;2.03;;
72785;SDS011;60902;53.876;10.674;2023-07-24T00:24:51;5.60;;;2.30;;
72785;SDS011;60902;53.876;10.674;2023-07-24T00:25:02;5.78;;;2.30;;
72785;SDS011;60902;53.876;10.674;2023-07-24T00:25:13;5.80;;;2.30;;
72785;SDS011;60902;53.876;10.674;2023-07-24T00:25:23;5.55;;;2.08;;
72785;SDS011;60902;53.876;10.674;2023-07-24T00:25:35;4.20;;;1.93;;
72785;SDS011;60902;53.876;10.674;2023-07-24T00:25:45;4.13;;;1.98;;
72785;SDS011;60902;53.876;10.674;2023-07-24T00:25:56;4.20;;;2.20;;
72785;SDS011;60902;53.876;10.674;2023-07-24T00:26:07;4.28;;;2.13;;
72785;SDS011;60902;53.876;10.674;2023-07-24T00:26:19;4.20;;;1.98;;
72785;SDS011;60902;53.876;10.674;2023-07-24T00:26:30;4.22;;;1.80;;
72785;SDS011;60902;53.876;10.674;2023-07-24T00:26:41;4.28;;;1.95;;
72785;SDS011;60902;53.876;10.674;2023-07-24T00:26:53;4.30;;;2.10;;
72785;SDS011;60902;53.876;10.674;2023-07-24T00:27:04;4.15;;;2.05;;
72785;SDS011;60902;53.876;10.674;2023-07-24T00:27:15;4.13;;;1.92;;
72785;SDS011;60902;53.876;10.674;2023-07-24T00:27:26;5.00;;;1.90;;
72785;SDS011;60902;53.876;10.674;2023-07-24T00:27:37;5.65;;;1.95;;
72785;SDS011;60902;53.876;10.674;2023-07-24T00:27:48;5.40;;;1.90;;
72785;SDS011;60902;53.876;10.674;2023-07-24T00:27:59;4.85;;;1.92;;
72785;SDS011;60902;53.876;10.674;2023-07-24T00:28:11;4.30;;;2.08;;
72785;SDS011;60902;53.876;10.674;2023-07-24T00:28:22;4.40;;;2.00;;
72785;SDS011;60902;53.876;10.674;2023-07-24T00:28:33;4.47;;;2.05;;
72785;SDS011;60902;53.876;10.674;2023-07-24T00:28:44;4.43;;;2.10;;
72785;SDS011;60902;53.876;10.674;2023-07-24T00:28:54;4.30;;;2.13;;
72785;SDS011;60902;53.876;10.674;2023-07-24T00:29:05;4.30;;;2.20;;
72785;SDS011;60902;53.876;10.674;2023-07-24T00:29:16;4.20;;;2.13;;
72785;SDS011;60902;53.876;10.674;2023-07-24T00:29:27;4.20;;;2.03;;
72785;SDS011;60902;53.876;10.674;2023-07-24T00:29:38;4.50;;;2.05;;
72785;SDS011;60902;53.876;10.674;2023-07-24T00:29:49;4.60;;;2.03;;
72785;SDS011;60902;53.876;10.674;2023-07-24T00:30:00;4.60;;;2.10;;
72785;SDS011;60902;53.876;10.674;2023-07-24T00:30:11;4.72;;;2.10;;
72785;SDS011;60902;53.876;10.674;2023-07-24T00:30:23;4.95;;;2.33;;
72785;SDS011;60902;53.876;10.674;2023-07-24T00:30:34;4.80;;;2.28;;
72785;SDS011;60902;53.876;10.674;2023-07-24T00:30:45;4.63;;;2.20;;
72785;SDS011;60902;53.876;10.674;2023-07-24T00:30:56;4.60;;;2.10;;
72785;SDS011;60902;53.876;10.674;2023-07-24T00:31:06;4.72;;;2.08;;
72785;SDS011;60902;53.876;10.674;2023-07-24T00:31:18;4.43;;;2.00;;
72785;SDS011;60902;53.876;10.674;2023-07-24T00:31:28;4.60;;;2.00;;
72785;SDS011;60902;53.876;10.674;2023-07-24T00:31:39;4.57;;;1.92;;
72785;SDS011;60902;53.876;10.674;2023-07-24T00:31:50;4.07;;;1.75;;
72785;SDS011;60902;53.876;10.674;2023-07-24T00:32:02;3.80;;;1.83;;
72785;SDS011;60902;53.876;10.674;2023-07-24T00:32:13;4.15;;;2.13;;
72785;SDS011;60902;53.876;10.674;2023-07-24T00:32:24;4.60;;;2.20;;
72785;SDS011;60902;53.876;10.674;2023-07-24T00:32:35;4.82;;;2.15;;
72785;SDS011;60902;53.876;10.674;2023-07-24T00:32:46;4.95;;;2.10;;
72785;SDS011;60902;53.876;10.674;2023-07-24T00:32:57;4.88;;;2.38;;
72785;SDS011;60902;53.876;10.674;2023-07-24T00:33:08;4.53;;;2.47;;
72785;SDS011;60902;53.876;10.674;2023-07-24T00:33:19;4.38;;;2.30;;
72785;SDS011;60902;53.876;10.674;2023-07-24T00:33:29;4.47;;;2.30;;
72785;SDS011;60902;53.876;10.674;2023-07-24T00:33:40;4.60;;;2.28;;
72785;SDS011;60902;53.876;10.674;2023-07-24T00:33:52;4.25;;;1.92;;
72785;SDS011;60902;53.876;10.674;2023-07-24T00:34:03;4.10;;;1.80;;
72785;SDS011;60902;53.876;10.674;2023-07-24T00:34:14;4.07;;;1.77;;
72785;SDS011;60902;53.876;10.674;2023-07-24T00:34:25;4.07;;;1.80;;
72785;SDS011;60902;53.876;10.674;2023-07-24T00:34:36;4.00;;;1.92;;
72785;SDS011;60902;53.876;10.674;2023-07-24T00:34:47;4.35;;;2.00;;
72785;SDS011;60902;53.876;10.674;2023-07-24T00:34:58;5.03;;;2.10;;
72785;SDS011;60902;53.876;10.674;2023-07-24T00:35:09;5.10;;;2.03;;
72785;SDS011;60902;53.876;10.674;2023-07-24T00:35:20;4.35;;;2.05;;
72785;SDS011;60902;53.876;10.674;2023-07-24T00:35:31;4.13;;;2.10;;
72785;SDS011;60902;53.876;10.674;2023-07-24T00:35:43;4.22;;;2.10;;
72785;SDS011;60902;53.876;10.674;2023-07-24T00:35:55;4.40;;;2.10;;
72785;SDS011;60902;53.876;10.674;2023-07-24T00:36:06;4.53;;;2.20;;
72785;SDS011;60902;53.876;10.674;2023-07-24T00:36:17;4.67;;;2.23;;
72785;SDS011;60902;53.876;10.674;2023-07-24T00:36:28;4.45;;;2.30;;
72785;SDS011;60902;53.876;10.674;2023-07-24T00:36:39;4.25;;;2.15;;
72785;SDS011;60902;53.876;10.674;2023-07-24T00:36:50;4.18;;;2.20;;
72785;SDS011;60902;53.876;10.674;2023-07-24T00:37:01;4.47;;;2.10;;
72785;SDS011;60902;53.876;10.674;2023-07-24T00:37:12;4.60;;;2.22;;
72785;SDS011;60902;53.876;10.674;2023-07-24T00:37:23;4.53;;;2.13;;
72785;SDS011;60902;53.876;10.674;2023-07-24T00:37:36;4.43;;;2.22;;
72785;SDS011;60902;53.876;10.674;2023-07-24T00:37:48;4.25;;;2.08;;
72785;SDS011;60902;53.876;10.674;2023-07-24T00:37:59;4.05;;;1.90;;
72785;SDS011;60902;53.876;10.674;2023-07-24T00:38:10;4.10;;;1.95;;
72785;SDS011;60902;53.876;10.674;2023-07-24T00:38:21;4.10;;;2.00;;
72785;SDS011;60902;53.876;10.674;2023-07-24T00:38:32;4.60;;;2.20;;
72785;SDS011;60902;53.876;10.674;2023-07-24T00:38:42;4.57;;;2.10;;
72785;SDS011;60902;53.876;10.674;2023-07-24T00:38:53;5.05;;;2.25;;
72785;SDS011;60902;53.876;10.674;2023-07-24T00:39:04;4.68;;;2.10;;
72785;SDS011;60902;53.876;10.674;2023-07-24T00:39:15;4.60;;;2.10;;
72785;SDS011;60902;53.876;10.674;2023-07-24T00:39:26;4.20;;;1.90;;
72785;SDS011;60902;53.876;10.674;2023-07-24T00:39:39;4.03;;;1.70;;
72785;SDS011;60902;53.876;10.674;2023-07-24T00:39:50;4.00;;;1.70;;
72785;SDS011;60902;53.876;10.674;2023-07-24T00:40:01;4.50;;;1.75;;
72785;SDS011;60902;53.876;10.674;2023-07-24T00:40:12;4.68;;;1.85;;
72785;SDS011;60902;53.876;10.674;2023-07-24T00:40:23;4.65;;;1.98;;
72785;SDS011;60902;53.876;10.674;2023-07-24T00:40:34;4.80;;;2.20;;
72785;SDS011;60902;53.876;10.674;2023-07-24T00:40:45;4.72;;;2.22;;
72785;SDS011;60902;53.876;10.674;2023-07-24T00:40:56;5.10;;;2.20;;
72785;SDS011;60902;53.876;10.674;2023-07-24T00:41:07;4.57;;;2.05;;
72785;SDS011;60902;53.876;10.674;2023-07-24T00:41:18;4.53;;;2.00;;
72785;SDS011;60902;53.876;10.674;2023-07-24T00:41:30;4.10;;;2.00;;
72785;SDS011;60902;53.876;10.674;2023-07-24T00:41:40;4.13;;;1.85;;
72785;SDS011;60902;53.876;10.674;2023-07-24T00:41:51;4.10;;;1.83;;
72785;SDS011;60902;53.876;10.674;2023-07-24T00:42:04;4.10;;;1.80;;
72785;SDS011;60902;53.876;10.674;2023-07-24T00:42:15;4.22;;;2.00;;
72785;SDS011;60902;53.876;10.674;2023-07-24T00:42:26;4.68;;;2.10;;
72785;SDS011;60902;53.876;10.674;2023-07-24T00:42:37;5.50;;;2.22;;
72785;SDS011;60902;53.876;10.674;2023-07-24T00:42:48;5.57;;;2.40;;
72785;SDS011;60902;53.876;10.674;2023-07-24T00:42:59;5.20;;;2.30;;
72785;SDS011;60902;53.876;10.674;2023-07-24T00:43:09;4.70;;;2.20;;
72785;SDS011;60902;53.876;10.674;2023-07-24T00:43:24;4.35;;;2.20;;
72785;SDS011;60902;53.876;10.674;2023-07-24T00:43:35;4.30;;;2.20;;
72785;SDS011;60902;53.876;10.674;2023-07-24T00:43:46;4.90;;;2.13;;
72785;SDS011;60902;53.876;10.674;2023-07-24T00:43:57;5.57;;;2.20;;
72785;SDS011;60902;53.876;10.674;2023-07-24T00:44:08;5.60;;;2.30;;
72785;SDS011;60902;53.876;10.674;2023-07-24T00:44:19;4.37;;;2.00;;
72785;SDS011;60902;53.876;10.674;2023-07-24T00:44:30;4.45;;;2.33;;
72785;SDS011;60902;53.876;10.674;2023-07-24T00:44:41;4.47;;;2.50;;
72785;SDS011;60902;53.876;10.674;2023-07-24T00:44:52;4.50;;;2.53;;
72785;SDS011;60902;53.876;10.674;2023-07-24T00:45:04;4.57;;;2.08;;
72785;SDS011;60902;53.876;10.674;2023-07-24T00:45:15;4.18;;;1.70;;
72785;SDS011;60902;53.876;10.674;2023-07-24T00:45:26;4.20;;;1.70;;
72785;SDS011;60902;53.876;10.674;2023-07-24T00:45:37;4.28;;;1.80;;
72785;SDS011;60902;53.876;10.674;2023-07-24T00:45:48;4.43;;;1.85;;
72785;SDS011;60902;53.876;10.674;2023-07-24T00:45:59;4.65;;;1.80;;
72785;SDS011;60902;53.876;10.674;2023-07-24T00:46:10;4.45;;;2.00;;
72785;SDS011;60902;53.876;10.674;2023-07-24T00:46:21;4.65;;;2.00;;
72785;SDS011;60902;53.876;10.674;2023-07-24T00:46:33;4.60;;;1.92;;
72785;SDS011;60902;53.876;10.674;2023-07-24T00:46:46;5.15;;;2.20;;
72785;SDS011;60902;53.876;10.674;2023-07-24T00:46:57;4.93;;;2.20;;
72785;SDS011;60902;53.876;10.674;2023-07-24T00:47:08;5.10;;;2.38;;
72785;SDS011;60902;53.876;10.674;2023-07-24T00:47:19;4.57;;;2.30;;
72785;SDS011;60902;53.876;10.674;2023-07-24T00:47:31;4.63;;;2.33;;
72785;SDS011;60902;53.876;10.674;2023-07-24T00:47:42;4.50;;;2.30;;
72785;SDS011;60902;53.876;10.674;2023-07-24T00:47:54;4.47;;;2.30;;
72785;SDS011;60902;53.876;10.674;2023-07-24T00:48:05;4.30;;;2.22;;
72785;SDS011;60902;53.876;10.674;2023-07-24T00:48:16;4.30;;;2.00;;
72785;SDS011;60902;53.876;10.674;2023-07-24T00:48:27;4.53;;;1.90;;
72785;SDS011;60902;53.876;10.674;2023-07-24T00:48:38;4.53;;;2.03;;
72785;SDS011;60902;53.876;10.674;2023-07-24T00:48:50;4.75;;;2.28;;
72785;SDS011;60902;53.876;10.674;2023-07-24T00:49:02;4.88;;;2.25;;
72785;SDS011;60902;53.876;10.674;2023-07-24T00:49:15;5.30;;;1.95;;
72785;SDS011;60902;53.876;10.674;2023-07-24T00:49:26;5.35;;;1.90;;
72785;SDS011;60902;53.876;10.674;2023-07-24T00:49:37;4.82;;;2.00;;
72785;SDS011;60902;53.876;10.674;2023-07-24T00:49:48;4.38;;;2.00;;
72785;SDS011;60902;53.876;10.674;2023-07-24T00:50:00;4.10;;;2.08;;
72785;SDS011;60902;53.876;10.674;2023-07-24T00:50:11;3.97;;;1.87;;
72785;SDS011;60902;53.876;10.674;2023-07-24T00:50:22;4.50;;;2.10;;
72785;SDS011;60902;53.876;10.674;2023-07-24T00:50:34;4.43;;;1.95;;
72785;SDS011;60902;53.876;10.674;2023-07-24T00:50:48;4.35;;;2.17;;
72785;SDS011;60902;53.876;10.674;2023-07-24T00:51:00;4.50;;;2.35;;
72785;SDS011;60902;53.876;10.674;2023-07-24T00:51:11;4.75;;;2.38;;
72785;SDS011;60902;53.876;10.674;2023-07-24T00:51:22;4.68;;;2.35;;
72785;SDS011;60902;53.876;10.674;2023-07-24T00:51:33;4.55;;;2.15;;
72785;SDS011;60902;53.876;10.674;2023-07-24T00:51:46;4.30;;;2.05;;
72785;SDS011;60902;53.876;10.674;2023-07-24T00:51:58;4.40;;;2.10;;
72785;SDS011;60902;53.876;10.674;2023-07-24T00:52:09;4.78;;;2.15;;
72785;SDS011;60902;53.876;10.674;2023-07-24T00:52:20;4.85;;;1.92;;
72785;SDS011;60902;53.876;10.674;2023-07-24T00:52:31;4.72;;;1.85;;
72785;SDS011;60902;53.876;10.674;2023-07-24T00:52:42;4.15;;;1.85;;
72785;SDS011;60902;53.876;10.674;2023-07-24T00:52:53;4.35;;;1.90;;
72785;SDS011;60902;53.876;10.674;2023-07-24T00:53:05;4.40;;;2.00;;
72785;SDS011;60902;53.876;10.674;2023-07-24T00:53:16;4.20;;;2.00;;
72785;SDS011;60902;53.876;10.674;2023-07-24T00:53:29;4.20;;;1.98;;
72785;SDS011;60902;53.876;10.674;2023-07-24T00:53:40;4.10;;;1.95;;
72785;SDS011;60902;53.876;10.674;2023-07-24T00:53:51;4.30;;;2.15;;
72785;SDS011;60902;53.876;10.674;2023-07-24T00:54:02;4.40;;;2.10;;
72785;SDS011;60902;53.876;10.674;2023-07-24T00:54:13;4.63;;;2.20;;
72785;SDS011;60902;53.876;10.674;2023-07-24T00:54:26;4.57;;;2.22;;
72785;SDS011;60902;53.876;10.674;2023-07-24T00:54:43;4.32;;;2.05;;
72785;SDS011;60902;53.876;10.674;2023-07-24T00:54:56;4.38;;;2.00;;
72785;SDS011;60902;53.876;10.674;2023-07-24T00:55:07;4.47;;;2.07;;
72785;SDS011;60902;53.876;10.674;2023-07-24T00:55:19;4.63;;;2.25;;
72785;SDS011;60902;53.876;10.674;2023-07-24T00:55:30;4.63;;;2.30;;
72785;SDS011;60902;53.876;10.674;2023-07-24T00:55:41;4.65;;;2.08;;
72785;SDS011;60902;53.876;10.674;2023-07-24T00:55:52;4.30;;;1.90;;
72785;SDS011;60902;53.876;10.674;2023-07-24T00:56:04;4.43;;;2.08;;
72785;SDS011;60902;53.876;10.674;2023-07-24T00:56:15;4.32;;;2.13;;
72785;SDS011;60902;53.876;10.674;2023-07-24T00:56:26;4.47;;;2.07;;
72785;SDS011;60902;53.876;10.674;2023-07-24T00:56:38;4.40;;;2.00;;
72785;SDS011;60902;53.876;10.674;2023-07-24T00:56:49;4.25;;;1.90;;
72785;SDS011;60902;53.876;10.674;2023-07-24T00:57:02;4.20;;;2.00;;
72785;SDS011;60902;53.876;10.674;2023-07-24T00:57:14;4.47;;;2.03;;
72785;SDS011;60902;53.876;10.674;2023-07-24T00:57:25;4.47;;;1.95;;
72785;SDS011;60902;53.876;10.674;2023-07-24T00:57:36;4.53;;;2.00;;
72785;SDS011;60902;53.876;10.674;2023-07-24T00:57:47;4.22;;;2.03;;
72785;SDS011;60902;53.876;10.674;2023-07-24T00:57:59;4.50;;;2.25;;
72785;SDS011;60902;53.876;10.674;2023-07-24T00:58:10;5.00;;;2.30;;
72785;SDS011;60902;53.876;10.674;2023-07-24T00:58:23;5.03;;;2.13;;
72785;SDS011;60902;53.876;10.674;2023-07-24T00:58:34;4.57;;;2.03;;
72785;SDS011;60902;53.876;10.674;2023-07-24T00:58:47;4.90;;;2.10;;
72785;SDS011;60902;53.876;10.674;2023-07-24T00:58:59;4.43;;;1.85;;
72785;SDS011;60902;53.876;10.674;2023-07-24T00:59:11;4.15;;;1.70;;
72785;SDS011;60902;53.876;10.674;2023-07-24T00:59:22;4.00;;;1.77;;
72785;SDS011;60902;53.876;10.674;2023-07-24T00:59:33;4.30;;;2.05;;
72785;SDS011;60902;53.876;10.674;2023-07-24T00:59:44;4.40;;;2.15;;
72785;SDS011;60902;53.876;10.674;2023-07-24T00:59:55;4.75;;;2.20;;
72785;SDS011;60902;53.876;10.674;2023-07-24T01:00:06;4.95;;;2.15;;
72785;SDS011;60902;53.876;10.674;2023-07-24T01:00:19;4.85;;;2.00;;
72785;SDS011;60902;53.876;10.674;2023-07-24T01:00:30;4.43;;;2.10;;
72785;SDS011;60902;53.876;10.674;2023-07-24T01:00:42;4.30;;;1.90;;
72785;SDS011;60902;53.876;10.674;2023-07-24T01:00:53;4.20;;;1.85;;
72785;SDS011;60902;53.876;10.674;2023-07-24T01:01:04;4.07;;;1.90;;
72785;SDS011;60902;53.876;10.674;2023-07-24T01:01:15;4.15;;;2.00;;
72785;SDS011;60902;53.876;10.674;2023-07-24T01:01:27;4.20;;;2.00;;
72785;SDS011;60902;53.876;10.674;2023-07-24T01:01:39;4.57;;;2.20;;
72785;SDS011;60902;53.876;10.674;2023-07-24T01:01:52;4.38;;;2.13;;
72785;SDS011;60902;53.876;10.674;2023-07-24T01:02:03;4.22;;;2.03;;
72785;SDS011;60902;53.876;10.674;2023-07-24T01:02:15;4.45;;;2.05;;
72785;SDS011;60902;53.876;10.674;2023-07-24T01:02:25;4.50;;;1.95;;
72785;SDS011;60902;53.876;10.674;2023-07-24T01:02:37;4.28;;;1.95;;
72785;SDS011;60902;53.876;10.674;2023-07-24T01:02:49;4.22;;;1.92;;
72785;SDS011;60902;53.876;10.674;2023-07-24T01:03:00;4.30;;;2.05;;
72785;SDS011;60902;53.876;10.674;2023-07-24T01:03:11;4.32;;;2.13;;
72785;SDS011;60902;53.876;10.674;2023-07-24T01:03:22;4.40;;;2.10;;
72785;SDS011;60902;53.876;10.674;2023-07-24T01:03:42;5.07;;;2.00;;
72785;SDS011;60902;53.876;10.674;2023-07-24T01:03:55;4.55;;;2.00;;
72785;SDS011;60902;53.876;10.674;2023-07-24T01:04:07;4.63;;;1.80;;
72785;SDS011;60902;53.876;10.674;2023-07-24T01:04:18;4.90;;;1.77;;
72785;SDS011;60902;53.876;10.674;2023-07-24T01:04:29;5.17;;;1.90;;
72785;SDS011;60902;53.876;10.674;2023-07-24T01:04:40;4.68;;;1.90;;
72785;SDS011;60902;53.876;10.674;2023-07-24T01:04:51;4.30;;;1.90;;
72785;SDS011;60902;53.876;10.674;2023-07-24T01:05:02;4.15;;;1.80;;
72785;SDS011;60902;53.876;10.674;2023-07-24T01:05:14;3.97;;;1.70;;
72785;SDS011;60902;53.876;10.674;2023-07-24T01:05:25;3.90;;;1.70;;
72785;SDS011;60902;53.876;10.674;2023-07-24T01:05:37;4.57;;;1.90;;
72785;SDS011;60902;53.876;10.674;2023-07-24T01:05:48;4.72;;;2.10;;
72785;SDS011;60902;53.876;10.674;2023-07-24T01:05:59;4.77;;;2.20;;
72785;SDS011;60902;53.876;10.674;2023-07-24T01:06:11;4.38;;;2.10;;
72785;SDS011;60902;53.876;10.674;2023-07-24T01:06:22;4.40;;;2.10;;
72785;SDS011;60902;53.876;10.674;2023-07-24T01:06:34;4.18;;;2.00;;
72785;SDS011;60902;53.876;10.674;2023-07-24T01:06:45;4.28;;;1.92;;
72785;SDS011;60902;53.876;10.674;2023-07-24T01:06:56;4.43;;;2.20;;
72785;SDS011;60902;53.876;10.674;2023-07-24T01:07:07;4.35;;;2.10;;
72785;SDS011;60902;53.876;10.674;2023-07-24T01:07:19;4.47;;;2.20;;
72785;SDS011;60902;53.876;10.674;2023-07-24T01:07:31;4.20;;;2.05;;